sensor_id;sensor_type;location;lat;lon;timestamp;pressure;altitude;pressure_sealevel;temperature;humidity
550;BME280;20066;48.764;9.176;2023-05-22T00:00:00;97785.19;;;19.99;60.12
550;BME280;20066;48.764;9.176;2023-05-22T00:02:28;97787.78;;;19.76;60.38
550;BME280;20066;48.764;9.176;2023-05-22T00:04:58;97785.81;;;19.76;60.82
550;BME280;20066;48.764;9.176;2023-05-22T00:07:28;97783.78;;;19.49;61.67
550;BME280;20066;48.764;9.176;2023-05-22T00:09:56;97781.69;;;19.81;60.21
550;BME280;20066;48.764;9.176;2023-05-22T00:12:24;97791.81;;;19.44;62.09
550;BME280;20066;48.764;9.176;2023-05-22T00:14:52;97775.75;;;19.55;60.88
550;BME280;20066;48.764;9.176;2023-05-22T00:17:19;97779.81;;;19.23;61.81
550;BME280;20066;48.764;9.176;2023-05-22T00:19:47;97784.88;;;18.63;64.32
550;BME280;20066;48.764;9.176;2023-05-22T00:22:16;97777.94;;;19.02;63.94
550;BME280;20066;48.764;9.176;2023-05-22T00:24:45;97777.97;;;18.49;65.74
550;BME280;20066;48.764;9.176;2023-05-22T00:27:13;97776.72;;;18.72;64.57
550;BME280;20066;48.764;9.176;2023-05-22T00:29:41;97776.41;;;19.10;62.67
550;BME280;20066;48.764;9.176;2023-05-22T00:32:09;97766.88;;;18.74;64.58
550;BME280;20066;48.764;9.176;2023-05-22T00:34:36;97777.03;;;19.05;62.78
550;BME280;20066;48.764;9.176;2023-05-22T00:37:04;97772.97;;;18.17;65.87
550;BME280;20066;48.764;9.176;2023-05-22T00:39:32;97766.22;;;18.92;63.11
550;BME280;20066;48.764;9.176;2023-05-22T00:42:02;97772.97;;;18.47;65.83
550;BME280;20066;48.764;9.176;2023-05-22T00:44:30;97764.91;;;18.75;63.74
550;BME280;20066;48.764;9.176;2023-05-22T00:46:57;97776.22;;;18.86;63.45
550;BME280;20066;48.764;9.176;2023-05-22T00:49:25;97772.13;;;18.60;63.77
550;BME280;20066;48.764;9.176;2023-05-22T00:51:53;97769.66;;;18.53;64.02
550;BME280;20066;48.764;9.176;2023-05-22T00:54:21;97772.56;;;18.58;64.48
550;BME280;20066;48.764;9.176;2023-05-22T00:56:49;97771.19;;;18.54;64.06
550;BME280;20066;48.764;9.176;2023-05-22T00:59:19;97770.34;;;18.13;65.61
550;BME280;20066;48.764;9.176;2023-05-22T01:01:47;97779.59;;;18.68;64.54
550;BME280;20066;48.764;9.176;2023-05-22T01:04:15;97775.53;;;18.82;63.66
550;BME280;20066;48.764;9.176;2023-05-22T01:06:44;97770.94;;;18.92;62.28
550;BME280;20066;48.764;9.176;2023-05-22T01:09:13;97775.91;;;18.84;63.90
550;BME280;20066;48.764;9.176;2023-05-22T01:11:50;97777.81;;;19.14;62.19
550;BME280;20066;48.764;9.176;2023-05-22T01:14:33;97774.88;;;19.00;62.18
550;BME280;20066;48.764;9.176;2023-05-22T01:17:08;97783.88;;;18.47;64.61
550;BME280;20066;48.764;9.176;2023-05-22T01:19:53;97781.19;;;18.88;63.26
550;BME280;20066;48.764;9.176;2023-05-22T01:22:43;97776.44;;;18.79;62.88
550;BME280;20066;48.764;9.176;2023-05-22T01:25:37;97780.28;;;18.29;64.24
550;BME280;20066;48.764;9.176;2023-05-22T01:28:21;97788.53;;;18.69;63.77
550;BME280;20066;48.764;9.176;2023-05-22T01:31:01;97787.13;;;18.86;62.62
550;BME280;20066;48.764;9.176;2023-05-22T01:33:31;97792.84;;;17.92;66.57
550;BME280;20066;48.764;9.176;2023-05-22T01:36:01;97787.63;;;18.19;65.30
550;BME280;20066;48.764;9.176;2023-05-22T01:38:30;97786.28;;;18.45;64.39
550;BME280;20066;48.764;9.176;2023-05-22T01:40:59;97791.84;;;18.42;64.49
550;BME280;20066;48.764;9.176;2023-05-22T01:43:28;97799.78;;;18.05;66.08
550;BME280;20066;48.764;9.176;2023-05-22T01:45:56;97800.50;;;17.84;67.70
550;BME280;20066;48.764;9.176;2023-05-22T01:48:25;97790.22;;;17.66;69.30
550;BME280;20066;48.764;9.176;2023-05-22T01:50:53;97792.88;;;17.79;68.60
550;BME280;20066;48.764;9.176;2023-05-22T01:53:29;97789.31;;;18.26;65.53
550;BME280;20066;48.764;9.176;2023-05-22T01:56:02;97800.38;;;18.00;66.41
550;BME280;20066;48.764;9.176;2023-05-22T01:58:38;97797.25;;;18.11;65.04
550;BME280;20066;48.764;9.176;2023-05-22T02:01:07;97797.19;;;18.24;65.03
550;BME280;20066;48.764;9.176;2023-05-22T02:03:38;97802.41;;;18.40;64.34
550;BME280;20066;48.764;9.176;2023-05-22T02:06:09;97800.44;;;18.31;64.69
550;BME280;20066;48.764;9.176;2023-05-22T02:08:40;97792.78;;;17.83;66.63
550;BME280;20066;48.764;9.176;2023-05-22T02:11:09;97796.44;;;18.23;65.51
550;BME280;20066;48.764;9.176;2023-05-22T02:13:39;97796.66;;;18.60;63.54
550;BME280;20066;48.764;9.176;2023-05-22T02:16:07;97804.94;;;18.56;63.43
550;BME280;20066;48.764;9.176;2023-05-22T02:18:39;97801.44;;;18.46;63.89
550;BME280;20066;48.764;9.176;2023-05-22T02:21:09;97800.25;;;18.57;63.40
550;BME280;20066;48.764;9.176;2023-05-22T02:23:37;97807.75;;;18.00;65.27
550;BME280;20066;48.764;9.176;2023-05-22T02:26:05;97802.63;;;18.02;65.65
550;BME280;20066;48.764;9.176;2023-05-22T02:28:32;97792.38;;;18.28;64.22
550;BME280;20066;48.764;9.176;2023-05-22T02:31:00;97791.03;;;18.10;64.88
550;BME280;20066;48.764;9.176;2023-05-22T02:33:29;97793.41;;;17.87;66.33
550;BME280;20066;48.764;9.176;2023-05-22T02:35:58;97792.31;;;18.19;65.33
550;BME280;20066;48.764;9.176;2023-05-22T02:38:26;97793.19;;;18.37;64.42
550;BME280;20066;48.764;9.176;2023-05-22T02:40:54;97795.72;;;18.10;64.92
550;BME280;20066;48.764;9.176;2023-05-22T02:43:22;97793.88;;;17.85;65.33
550;BME280;20066;48.764;9.176;2023-05-22T02:45:49;97792.63;;;17.86;66.13
550;BME280;20066;48.764;9.176;2023-05-22T02:48:17;97793.06;;;18.19;65.07
550;BME280;20066;48.764;9.176;2023-05-22T02:50:45;97787.69;;;18.28;64.21
550;BME280;20066;48.764;9.176;2023-05-22T02:53:15;97792.56;;;18.64;62.84
550;BME280;20066;48.764;9.176;2023-05-22T02:55:43;97787.97;;;18.52;62.97
550;BME280;20066;48.764;9.176;2023-05-22T02:58:11;97795.00;;;18.40;63.88
550;BME280;20066;48.764;9.176;2023-05-22T03:00:40;97798.66;;;17.81;66.61
550;BME280;20066;48.764;9.176;2023-05-22T03:03:08;97786.00;;;18.53;63.23
550;BME280;20066;48.764;9.176;2023-05-22T03:05:37;97784.06;;;18.53;62.79
550;BME280;20066;48.764;9.176;2023-05-22T03:08:05;97790.22;;;18.44;64.01
550;BME280;20066;48.764;9.176;2023-05-22T03:10:34;97791.16;;;17.85;66.19
550;BME280;20066;48.764;9.176;2023-05-22T03:13:02;97788.56;;;18.47;63.99
550;BME280;20066;48.764;9.176;2023-05-22T03:15:30;97799.56;;;17.65;66.06
550;BME280;20066;48.764;9.176;2023-05-22T03:17:59;97803.91;;;18.32;64.37
550;BME280;20066;48.764;9.176;2023-05-22T03:20:27;97800.53;;;18.49;63.71
550;BME280;20066;48.764;9.176;2023-05-22T03:22:56;97805.09;;;18.53;63.31
550;BME280;20066;48.764;9.176;2023-05-22T03:25:24;97810.75;;;18.15;65.09
550;BME280;20066;48.764;9.176;2023-05-22T03:27:53;97805.69;;;17.69;66.42
550;BME280;20066;48.764;9.176;2023-05-22T03:30:21;97808.81;;;18.02;65.66
550;BME280;20066;48.764;9.176;2023-05-22T03:32:49;97811.78;;;17.95;66.04
550;BME280;20066;48.764;9.176;2023-05-22T03:35:18;97812.81;;;18.10;65.56
550;BME280;20066;48.764;9.176;2023-05-22T03:37:46;97817.06;;;18.12;65.80
550;BME280;20066;48.764;9.176;2023-05-22T03:40:14;97816.25;;;18.24;65.07
550;BME280;20066;48.764;9.176;2023-05-22T03:42:42;97819.84;;;17.99;64.58
550;BME280;20066;48.764;9.176;2023-05-22T03:45:11;97819.84;;;17.99;66.26
550;BME280;20066;48.764;9.176;2023-05-22T03:47:38;97825.81;;;18.06;65.96
550;BME280;20066;48.764;9.176;2023-05-22T03:50:07;97820.16;;;18.44;64.19
550;BME280;20066;48.764;9.176;2023-05-22T03:52:35;97823.88;;;18.60;63.23
550;BME280;20066;48.764;9.176;2023-05-22T03:55:03;97821.94;;;18.60;63.39
550;BME280;20066;48.764;9.176;2023-05-22T03:57:31;97819.22;;;18.38;64.35
550;BME280;20066;48.764;9.176;2023-05-22T03:59:59;97829.16;;;18.10;65.23
550;BME280;20066;48.764;9.176;2023-05-22T04:02:36;97817.25;;;17.48;68.09
550;BME280;20066;48.764;9.176;2023-05-22T04:05:06;97822.25;;;17.62;67.43
550;BME280;20066;48.764;9.176;2023-05-22T04:07:35;97824.97;;;17.50;69.45
550;BME280;20066;48.764;9.176;2023-05-22T04:10:03;97824.09;;;18.22;65.93
550;BME280;20066;48.764;9.176;2023-05-22T04:12:31;97828.53;;;18.50;64.46
550;BME280;20066;48.764;9.176;2023-05-22T04:14:58;97829.88;;;18.45;64.93
550;BME280;20066;48.764;9.176;2023-05-22T04:17:30;97833.97;;;18.50;64.29
550;BME280;20066;48.764;9.176;2023-05-22T04:20:00;97834.94;;;18.34;64.39
550;BME280;20066;48.764;9.176;2023-05-22T04:22:27;97838.84;;;18.55;64.26
550;BME280;20066;48.764;9.176;2023-05-22T04:24:56;97837.72;;;17.87;67.37
550;BME280;20066;48.764;9.176;2023-05-22T04:27:24;97842.34;;;18.34;65.84
550;BME280;20066;48.764;9.176;2023-05-22T04:29:52;97841.38;;;18.49;65.02
550;BME280;20066;48.764;9.176;2023-05-22T04:32:20;97841.78;;;18.39;65.51
550;BME280;20066;48.764;9.176;2023-05-22T04:34:49;97843.25;;;18.31;65.07
550;BME280;20066;48.764;9.176;2023-05-22T04:37:18;97844.44;;;18.82;63.37
550;BME280;20066;48.764;9.176;2023-05-22T04:39:46;97845.31;;;19.01;62.46
550;BME280;20066;48.764;9.176;2023-05-22T04:42:18;97844.78;;;18.84;63.51
550;BME280;20066;48.764;9.176;2023-05-22T04:44:47;97842.44;;;18.74;64.25
550;BME280;20066;48.764;9.176;2023-05-22T04:47:18;97839.00;;;19.13;62.25
550;BME280;20066;48.764;9.176;2023-05-22T04:49:47;97850.78;;;18.79;63.95
550;BME280;20066;48.764;9.176;2023-05-22T04:52:15;97845.31;;;19.01;61.92
550;BME280;20066;48.764;9.176;2023-05-22T04:54:44;97844.75;;;18.54;64.98
550;BME280;20066;48.764;9.176;2023-05-22T04:57:12;97843.16;;;18.43;64.64
550;BME280;20066;48.764;9.176;2023-05-22T04:59:40;97857.09;;;18.45;65.21
550;BME280;20066;48.764;9.176;2023-05-22T05:02:08;97850.09;;;18.66;65.18
550;BME280;20066;48.764;9.176;2023-05-22T05:04:36;97859.06;;;18.45;65.01
550;BME280;20066;48.764;9.176;2023-05-22T05:07:04;97861.91;;;18.85;64.63
550;BME280;20066;48.764;9.176;2023-05-22T05:09:32;97853.75;;;19.34;62.60
550;BME280;20066;48.764;9.176;2023-05-22T05:12:01;97857.66;;;19.15;63.44
550;BME280;20066;48.764;9.176;2023-05-22T05:14:30;97854.31;;;18.36;65.23
550;BME280;20066;48.764;9.176;2023-05-22T05:16:57;97847.75;;;18.56;66.28
550;BME280;20066;48.764;9.176;2023-05-22T05:19:26;97847.41;;;18.23;66.16
550;BME280;20066;48.764;9.176;2023-05-22T05:21:54;97849.66;;;18.68;65.69
550;BME280;20066;48.764;9.176;2023-05-22T05:24:22;97851.56;;;18.58;65.26
550;BME280;20066;48.764;9.176;2023-05-22T05:26:50;97849.66;;;19.30;62.65
550;BME280;20066;48.764;9.176;2023-05-22T05:29:19;97850.94;;;19.65;61.28
550;BME280;20066;48.764;9.176;2023-05-22T05:31:47;97858.38;;;19.64;61.08
550;BME280;20066;48.764;9.176;2023-05-22T05:34:15;97847.56;;;18.94;63.60
550;BME280;20066;48.764;9.176;2023-05-22T05:36:42;97842.16;;;18.28;66.53
550;BME280;20066;48.764;9.176;2023-05-22T05:39:11;97838.00;;;18.89;64.34
550;BME280;20066;48.764;9.176;2023-05-22T05:41:39;97854.34;;;19.29;63.56
550;BME280;20066;48.764;9.176;2023-05-22T05:44:07;97845.13;;;19.36;63.38
550;BME280;20066;48.764;9.176;2023-05-22T05:46:36;97859.06;;;19.87;61.60
550;BME280;20066;48.764;9.176;2023-05-22T05:49:06;97851.50;;;19.42;62.13
550;BME280;20066;48.764;9.176;2023-05-22T05:51:35;97854.66;;;19.80;61.91
550;BME280;20066;48.764;9.176;2023-05-22T05:54:03;97854.47;;;19.16;63.55
550;BME280;20066;48.764;9.176;2023-05-22T05:56:31;97858.16;;;18.70;66.03
550;BME280;20066;48.764;9.176;2023-05-22T05:58:59;97860.41;;;19.82;62.24
550;BME280;20066;48.764;9.176;2023-05-22T06:01:28;97856.94;;;20.36;60.23
550;BME280;20066;48.764;9.176;2023-05-22T06:03:59;97857.09;;;20.60;59.40
550;BME280;20066;48.764;9.176;2023-05-22T06:06:30;97864.38;;;20.27;61.12
550;BME280;20066;48.764;9.176;2023-05-22T06:09:01;97867.78;;;20.91;59.15
550;BME280;20066;48.764;9.176;2023-05-22T06:11:30;97873.44;;;21.30;57.96
550;BME280;20066;48.764;9.176;2023-05-22T06:13:59;97870.25;;;21.64;56.24
550;BME280;20066;48.764;9.176;2023-05-22T06:16:28;97867.50;;;21.64;55.23
550;BME280;20066;48.764;9.176;2023-05-22T06:18:57;97867.72;;;21.75;55.46
550;BME280;20066;48.764;9.176;2023-05-22T06:21:26;97870.88;;;20.75;58.08
550;BME280;20066;48.764;9.176;2023-05-22T06:23:54;97870.09;;;20.84;57.62
550;BME280;20066;48.764;9.176;2023-05-22T06:26:22;97869.88;;;20.96;58.31
550;BME280;20066;48.764;9.176;2023-05-22T06:28:51;97871.06;;;20.53;58.99
550;BME280;20066;48.764;9.176;2023-05-22T06:31:20;97875.84;;;20.95;58.39
550;BME280;20066;48.764;9.176;2023-05-22T06:33:48;97875.31;;;21.14;57.36
550;BME280;20066;48.764;9.176;2023-05-22T06:36:17;97867.38;;;21.82;54.74
550;BME280;20066;48.764;9.176;2023-05-22T06:38:46;97873.31;;;21.24;55.71
550;BME280;20066;48.764;9.176;2023-05-22T06:41:15;97873.72;;;20.81;57.30
550;BME280;20066;48.764;9.176;2023-05-22T06:43:42;97862.91;;;21.70;55.28
550;BME280;20066;48.764;9.176;2023-05-22T06:46:10;97874.31;;;21.92;54.31
550;BME280;20066;48.764;9.176;2023-05-22T06:48:38;97865.44;;;21.74;55.55
550;BME280;20066;48.764;9.176;2023-05-22T06:51:06;97872.91;;;21.49;56.38
550;BME280;20066;48.764;9.176;2023-05-22T06:53:37;97871.16;;;21.61;55.13
550;BME280;20066;48.764;9.176;2023-05-22T06:56:06;97870.06;;;20.93;57.53
550;BME280;20066;48.764;9.176;2023-05-22T06:58:34;97867.72;;;20.49;59.19
550;BME280;20066;48.764;9.176;2023-05-22T07:01:02;97870.41;;;22.08;55.21
550;BME280;20066;48.764;9.176;2023-05-22T07:03:30;97878.56;;;21.70;55.03
550;BME280;20066;48.764;9.176;2023-05-22T07:05:57;97880.78;;;21.80;54.80
550;BME280;20066;48.764;9.176;2023-05-22T07:08:25;97880.06;;;21.47;55.57
550;BME280;20066;48.764;9.176;2023-05-22T07:10:56;97883.47;;;21.33;57.34
550;BME280;20066;48.764;9.176;2023-05-22T07:13:26;97884.38;;;21.30;57.42
550;BME280;20066;48.764;9.176;2023-05-22T07:15:58;97880.97;;;22.01;54.90
550;BME280;20066;48.764;9.176;2023-05-22T07:18:25;97879.53;;;21.58;55.92
550;BME280;20066;48.764;9.176;2023-05-22T07:20:53;97874.63;;;21.38;56.53
550;BME280;20066;48.764;9.176;2023-05-22T07:23:21;97879.88;;;21.50;56.15
550;BME280;20066;48.764;9.176;2023-05-22T07:25:51;97878.53;;;22.41;54.42
550;BME280;20066;48.764;9.176;2023-05-22T07:28:19;97886.81;;;22.85;52.88
550;BME280;20066;48.764;9.176;2023-05-22T07:30:48;97880.94;;;24.12;48.92
550;BME280;20066;48.764;9.176;2023-05-22T07:33:16;97889.59;;;24.51;48.06
550;BME280;20066;48.764;9.176;2023-05-22T07:35:44;97886.69;;;25.49;46.30
550;BME280;20066;48.764;9.176;2023-05-22T07:38:12;97887.22;;;25.53;45.31
550;BME280;20066;48.764;9.176;2023-05-22T07:40:40;97886.84;;;24.77;47.23
550;BME280;20066;48.764;9.176;2023-05-22T07:43:08;97888.34;;;25.72;45.76
550;BME280;20066;48.764;9.176;2023-05-22T07:45:36;97884.13;;;26.41;43.59
550;BME280;20066;48.764;9.176;2023-05-22T07:48:07;97879.91;;;24.81;45.96
550;BME280;20066;48.764;9.176;2023-05-22T07:50:35;97876.53;;;26.14;46.14
550;BME280;20066;48.764;9.176;2023-05-22T07:53:02;97881.28;;;24.71;48.18
550;BME280;20066;48.764;9.176;2023-05-22T07:55:31;97882.34;;;25.37;46.33
550;BME280;20066;48.764;9.176;2023-05-22T07:57:59;97879.78;;;26.13;44.69
550;BME280;20066;48.764;9.176;2023-05-22T08:00:29;97880.53;;;26.13;44.46
550;BME280;20066;48.764;9.176;2023-05-22T08:02:57;97885.41;;;26.63;43.51
550;BME280;20066;48.764;9.176;2023-05-22T08:05:27;97877.63;;;26.50;43.00
550;BME280;20066;48.764;9.176;2023-05-22T08:07:54;97877.88;;;26.63;44.02
550;BME280;20066;48.764;9.176;2023-05-22T08:10:22;97876.28;;;26.18;43.84
550;BME280;20066;48.764;9.176;2023-05-22T08:12:52;97882.44;;;26.77;43.28
550;BME280;20066;48.764;9.176;2023-05-22T08:15:19;97877.88;;;26.58;44.90
550;BME280;20066;48.764;9.176;2023-05-22T08:17:47;97879.69;;;26.89;43.44
550;BME280;20066;48.764;9.176;2023-05-22T08:20:15;97885.41;;;26.52;42.64
550;BME280;20066;48.764;9.176;2023-05-22T08:22:44;97878.63;;;25.88;44.55
550;BME280;20066;48.764;9.176;2023-05-22T08:25:12;97876.66;;;24.57;47.31
550;BME280;20066;48.764;9.176;2023-05-22T08:27:40;97874.66;;;26.00;44.67
550;BME280;20066;48.764;9.176;2023-05-22T08:30:08;97876.81;;;24.48;47.68
550;BME280;20066;48.764;9.176;2023-05-22T08:32:36;97874.50;;;24.41;47.79
550;BME280;20066;48.764;9.176;2023-05-22T08:35:05;97876.84;;;24.28;48.69
550;BME280;20066;48.764;9.176;2023-05-22T08:37:33;97874.31;;;25.76;45.26
550;BME280;20066;48.764;9.176;2023-05-22T08:40:03;97874.75;;;26.05;44.56
550;BME280;20066;48.764;9.176;2023-05-22T08:42:31;97869.16;;;26.00;44.33
550;BME280;20066;48.764;9.176;2023-05-22T08:44:59;97875.59;;;23.88;49.21
550;BME280;20066;48.764;9.176;2023-05-22T08:47:27;97872.25;;;24.19;48.93
550;BME280;20066;48.764;9.176;2023-05-22T08:49:56;97871.59;;;24.30;48.24
550;BME280;20066;48.764;9.176;2023-05-22T08:52:29;97867.91;;;24.33;48.70
550;BME280;20066;48.764;9.176;2023-05-22T08:55:03;97879.31;;;25.77;45.56
550;BME280;20066;48.764;9.176;2023-05-22T08:57:31;97876.31;;;26.40;44.89
550;BME280;20066;48.764;9.176;2023-05-22T09:00:00;97879.69;;;26.77;44.55
550;BME280;20066;48.764;9.176;2023-05-22T09:02:30;97871.88;;;26.70;44.49
550;BME280;20066;48.764;9.176;2023-05-22T09:04:58;97882.13;;;25.40;46.97
550;BME280;20066;48.764;9.176;2023-05-22T09:07:27;97875.38;;;25.10;48.13
550;BME280;20066;48.764;9.176;2023-05-22T09:09:55;97873.41;;;24.59;49.42
550;BME280;20066;48.764;9.176;2023-05-22T09:12:25;97864.81;;;24.25;49.14
550;BME280;20066;48.764;9.176;2023-05-22T09:14:52;97880.31;;;25.37;47.59
550;BME280;20066;48.764;9.176;2023-05-22T09:17:21;97872.31;;;25.39;46.84
550;BME280;20066;48.764;9.176;2023-05-22T09:19:49;97867.34;;;25.91;45.87
550;BME280;20066;48.764;9.176;2023-05-22T09:22:17;97868.19;;;26.03;45.98
550;BME280;20066;48.764;9.176;2023-05-22T09:24:46;97871.06;;;26.42;44.72
550;BME280;20066;48.764;9.176;2023-05-22T09:27:14;97869.31;;;27.62;41.84
550;BME280;20066;48.764;9.176;2023-05-22T09:29:50;97867.34;;;29.32;38.35
550;BME280;20066;48.764;9.176;2023-05-22T09:32:18;97873.28;;;28.52;40.49
550;BME280;20066;48.764;9.176;2023-05-22T09:34:46;97866.72;;;27.97;39.99
550;BME280;20066;48.764;9.176;2023-05-22T09:37:14;97863.22;;;28.49;39.66
550;BME280;20066;48.764;9.176;2023-05-22T09:39:43;97866.56;;;28.71;39.91
550;BME280;20066;48.764;9.176;2023-05-22T09:42:13;97864.00;;;28.79;39.65
550;BME280;20066;48.764;9.176;2023-05-22T09:44:47;97866.69;;;28.90;38.85
550;BME280;20066;48.764;9.176;2023-05-22T09:47:16;97859.31;;;28.98;38.72
550;BME280;20066;48.764;9.176;2023-05-22T09:49:44;97859.53;;;26.49;42.24
550;BME280;20066;48.764;9.176;2023-05-22T09:52:13;97856.06;;;27.49;39.82
550;BME280;20066;48.764;9.176;2023-05-22T09:54:48;97855.78;;;28.27;38.74
550;BME280;20066;48.764;9.176;2023-05-22T09:57:20;97862.75;;;27.87;39.56
550;BME280;20066;48.764;9.176;2023-05-22T09:59:50;97861.00;;;27.73;38.99
550;BME280;20066;48.764;9.176;2023-05-22T10:02:22;97865.91;;;28.13;39.51
550;BME280;20066;48.764;9.176;2023-05-22T10:04:51;97860.34;;;26.94;41.39
550;BME280;20066;48.764;9.176;2023-05-22T10:07:21;97859.84;;;28.20;40.25
550;BME280;20066;48.764;9.176;2023-05-22T10:09:51;97863.19;;;28.08;39.63
550;BME280;20066;48.764;9.176;2023-05-22T10:12:22;97863.50;;;27.87;40.55
550;BME280;20066;48.764;9.176;2023-05-22T10:14:52;97862.38;;;29.00;37.94
550;BME280;20066;48.764;9.176;2023-05-22T10:17:23;97860.97;;;29.67;37.66
550;BME280;20066;48.764;9.176;2023-05-22T10:19:52;97869.56;;;29.63;37.97
550;BME280;20066;48.764;9.176;2023-05-22T10:22:21;97867.56;;;29.09;38.59
550;BME280;20066;48.764;9.176;2023-05-22T10:24:51;97858.41;;;28.03;40.32
550;BME280;20066;48.764;9.176;2023-05-22T10:27:19;97856.28;;;28.25;39.11
550;BME280;20066;48.764;9.176;2023-05-22T10:29:51;97863.28;;;27.74;40.60
550;BME280;20066;48.764;9.176;2023-05-22T10:32:26;97862.19;;;28.52;38.49
550;BME280;20066;48.764;9.176;2023-05-22T10:35:04;97861.22;;;29.88;37.23
550;BME280;20066;48.764;9.176;2023-05-22T10:37:41;97859.63;;;30.35;35.94
550;BME280;20066;48.764;9.176;2023-05-22T10:40:13;97865.06;;;30.03;35.70
550;BME280;20066;48.764;9.176;2023-05-22T10:42:42;97854.88;;;29.20;37.65
550;BME280;20066;48.764;9.176;2023-05-22T10:45:10;97856.19;;;29.67;36.18
550;BME280;20066;48.764;9.176;2023-05-22T10:47:39;97852.50;;;30.40;35.32
550;BME280;20066;48.764;9.176;2023-05-22T10:50:09;97855.09;;;31.73;33.72
550;BME280;20066;48.764;9.176;2023-05-22T10:52:38;97850.78;;;30.18;35.76
550;BME280;20066;48.764;9.176;2023-05-22T10:55:06;97843.19;;;31.20;34.58
550;BME280;20066;48.764;9.176;2023-05-22T10:57:36;97838.94;;;31.58;34.00
550;BME280;20066;48.764;9.176;2023-05-22T11:00:07;97833.97;;;32.04;32.37
550;BME280;20066;48.764;9.176;2023-05-22T11:02:40;97835.19;;;30.15;35.80
550;BME280;20066;48.764;9.176;2023-05-22T11:05:33;97836.69;;;30.85;34.50
550;BME280;20066;48.764;9.176;2023-05-22T11:08:12;97833.53;;;32.13;33.05
550;BME280;20066;48.764;9.176;2023-05-22T11:11:09;97829.88;;;31.71;32.91
550;BME280;20066;48.764;9.176;2023-05-22T11:13:38;97827.22;;;33.86;28.68
550;BME280;20066;48.764;9.176;2023-05-22T11:16:10;97826.63;;;36.31;25.79
550;BME280;20066;48.764;9.176;2023-05-22T11:18:40;97823.75;;;35.99;26.41
550;BME280;20066;48.764;9.176;2023-05-22T11:21:11;97819.75;;;34.25;27.95
550;BME280;20066;48.764;9.176;2023-05-22T11:23:39;97822.41;;;33.94;29.50
550;BME280;20066;48.764;9.176;2023-05-22T11:26:18;97809.56;;;34.58;29.62
550;BME280;20066;48.764;9.176;2023-05-22T11:28:49;97800.31;;;31.55;32.95
550;BME280;20066;48.764;9.176;2023-05-22T11:31:19;97806.38;;;32.40;32.38
550;BME280;20066;48.764;9.176;2023-05-22T11:33:50;97805.88;;;34.78;29.44
550;BME280;20066;48.764;9.176;2023-05-22T11:36:18;97806.09;;;35.88;26.87
550;BME280;20066;48.764;9.176;2023-05-22T11:38:46;97804.00;;;35.26;27.90
550;BME280;20066;48.764;9.176;2023-05-22T11:41:14;97803.53;;;33.72;29.95
550;BME280;20066;48.764;9.176;2023-05-22T11:43:42;97797.56;;;32.49;31.45
550;BME280;20066;48.764;9.176;2023-05-22T11:46:10;97803.44;;;34.74;29.02
550;BME280;20066;48.764;9.176;2023-05-22T11:48:40;97790.00;;;32.02;31.59
550;BME280;20066;48.764;9.176;2023-05-22T11:51:10;97780.09;;;32.48;30.55
550;BME280;20066;48.764;9.176;2023-05-22T11:53:39;97781.88;;;31.65;31.43
550;BME280;20066;48.764;9.176;2023-05-22T11:56:07;97789.50;;;34.08;28.89
550;BME280;20066;48.764;9.176;2023-05-22T11:58:35;97784.03;;;35.07;26.09
550;BME280;20066;48.764;9.176;2023-05-22T12:01:04;97776.47;;;30.75;31.96
550;BME280;20066;48.764;9.176;2023-05-22T12:03:32;97772.94;;;33.02;29.41
550;BME280;20066;48.764;9.176;2023-05-22T12:06:00;97780.50;;;33.87;27.96
550;BME280;20066;48.764;9.176;2023-05-22T12:08:30;97784.78;;;36.83;24.38
550;BME280;20066;48.764;9.176;2023-05-22T12:10:59;97786.19;;;38.29;22.48
550;BME280;20066;48.764;9.176;2023-05-22T12:13:28;97778.25;;;34.67;27.31
550;BME280;20066;48.764;9.176;2023-05-22T12:15:57;97782.16;;;35.32;25.60
550;BME280;20066;48.764;9.176;2023-05-22T12:18:26;97774.31;;;33.73;27.81
550;BME280;20066;48.764;9.176;2023-05-22T12:20:54;97768.16;;;33.75;28.02
550;BME280;20066;48.764;9.176;2023-05-22T12:23:23;97757.19;;;33.12;28.93
550;BME280;20066;48.764;9.176;2023-05-22T12:26:00;97764.41;;;35.93;25.04
550;BME280;20066;48.764;9.176;2023-05-22T12:28:30;97765.94;;;37.87;22.92
550;BME280;20066;48.764;9.176;2023-05-22T12:30:59;97769.06;;;39.37;21.57
550;BME280;20066;48.764;9.176;2023-05-22T12:33:28;97768.84;;;35.56;26.37
550;BME280;20066;48.764;9.176;2023-05-22T12:35:56;97767.22;;;36.57;25.17
550;BME280;20066;48.764;9.176;2023-05-22T12:38:25;97771.50;;;37.43;23.49
550;BME280;20066;48.764;9.176;2023-05-22T12:40:54;97771.06;;;35.65;26.25
550;BME280;20066;48.764;9.176;2023-05-22T12:43:24;97771.19;;;34.96;27.56
550;BME280;20066;48.764;9.176;2023-05-22T12:45:52;97773.91;;;32.63;31.35
550;BME280;20066;48.764;9.176;2023-05-22T12:48:20;97775.59;;;32.66;30.46
550;BME280;20066;48.764;9.176;2023-05-22T12:50:49;97777.31;;;35.33;27.24
550;BME280;20066;48.764;9.176;2023-05-22T12:53:17;97775.69;;;37.17;23.48
550;BME280;20066;48.764;9.176;2023-05-22T12:55:45;97772.09;;;35.06;26.60
550;BME280;20066;48.764;9.176;2023-05-22T12:58:12;97778.66;;;34.94;27.21
550;BME280;20066;48.764;9.176;2023-05-22T13:00:42;97771.47;;;36.01;26.00
550;BME280;20066;48.764;9.176;2023-05-22T13:03:09;97776.94;;;34.68;26.92
550;BME280;20066;48.764;9.176;2023-05-22T13:05:38;97764.31;;;33.49;28.91
550;BME280;20066;48.764;9.176;2023-05-22T13:08:06;97755.13;;;32.43;30.06
550;BME280;20066;48.764;9.176;2023-05-22T13:10:34;97755.13;;;34.36;27.27
550;BME280;20066;48.764;9.176;2023-05-22T13:13:03;97754.94;;;35.10;26.40
550;BME280;20066;48.764;9.176;2023-05-22T13:15:32;97751.06;;;35.61;25.82
550;BME280;20066;48.764;9.176;2023-05-22T13:18:02;97746.50;;;36.78;23.22
550;BME280;20066;48.764;9.176;2023-05-22T13:20:30;97739.94;;;36.58;23.65
550;BME280;20066;48.764;9.176;2023-05-22T13:22:58;97745.56;;;32.72;28.66
550;BME280;20066;48.764;9.176;2023-05-22T13:25:26;97747.88;;;33.74;27.04
550;BME280;20066;48.764;9.176;2023-05-22T13:27:54;97746.56;;;34.26;27.64
550;BME280;20066;48.764;9.176;2023-05-22T13:30:22;97745.22;;;36.46;24.69
550;BME280;20066;48.764;9.176;2023-05-22T13:32:50;97740.34;;;31.93;29.73